createdAt,value
2018-12-05T05:00:19.901Z,27.17
2018-12-05T05:02:42.765Z,30.87
2018-12-05T05:05:05.560Z,27.63
2018-12-05T05:07:28.169Z,33.07
2018-12-05T05:09:50.817Z,27.50
2018-12-05T05:12:13.421Z,29.93
2018-12-05T05:14:36.033Z,31.30
2018-12-05T06:00:16.615Z,39.00
2018-12-05T06:02:39.495Z,34.73
2018-12-05T06:05:02.305Z,41.37
2018-12-05T06:07:36.896Z,34.87
2018-12-05T06:09:59.550Z,40.07
2018-12-05T06:12:22.176Z,36.63
2018-12-05T06:14:44.805Z,41.00
2018-12-05T07:00:21.929Z,44.33
2018-12-05T07:02:44.581Z,43.30
2018-12-05T07:05:07.247Z,44.50
2018-12-05T07:07:30.005Z,42.70
2018-12-05T07:09:52.642Z,43.27
2018-12-05T07:12:15.277Z,43.93
2018-12-05T07:14:37.946Z,43.13
2018-12-05T08:00:17.697Z,54.67
2018-12-05T08:02:40.364Z,48.50
2018-12-05T08:05:03.141Z,50.03
2018-12-05T08:07:25.874Z,54.83
2018-12-05T08:09:48.510Z,54.90
2018-12-05T08:12:11.096Z,45.57
2018-12-05T08:14:33.726Z,55.93
2018-12-05T09:00:17.230Z,48.23
2018-12-05T09:02:39.876Z,45.33
2018-12-05T09:05:02.761Z,49.63
2018-12-05T09:07:25.701Z,46.13
2018-12-05T09:09:48.350Z,44.67
2018-12-05T09:12:11.053Z,45.83
2018-12-05T11:02:44.632Z,35.27
2018-12-05T11:05:19.993Z,36.07
2018-12-05T11:07:48.284Z,36.23
2018-12-05T11:10:16.623Z,29.97
2018-12-05T11:12:43.807Z,33.67
2018-12-05T12:04:25.682Z,31.43
2018-12-05T12:06:48.542Z,28.93
2018-12-05T12:09:11.726Z,29.30
2018-12-05T12:11:34.510Z,30.67
2018-12-05T12:13:57.372Z,26.20
2018-12-05T14:02:41.751Z,24.05
2018-12-05T14:05:05.043Z,20.50
2018-12-05T16:08:30.860Z,36.57
2018-12-05T17:10:35.794Z,24.10
2018-12-05T17:12:58.388Z,24.17
2018-12-05T18:17:06.103Z,27.77
2018-12-05T18:19:29.794Z,28.13
2018-12-05T18:21:53.132Z,28.23
2018-12-05T18:24:16.430Z,27.70
2018-12-05T18:26:39.593Z,30.27
2018-12-05T18:29:02.796Z,29.87
2018-12-05T18:31:28.669Z,26.23
2018-12-05T18:33:51.252Z,25.43
2018-12-05T18:36:15.588Z,30.37
2018-12-05T18:38:42.452Z,24.57
2018-12-05T18:41:05.433Z,24.50
2018-12-05T18:43:28.324Z,28.33
2018-12-05T18:45:51.256Z,25.27
2018-12-05T18:48:14.037Z,26.60
2018-12-05T18:50:36.638Z,28.70
2018-12-05T18:52:59.209Z,28.20
2018-12-05T18:55:21.858Z,26.93
2018-12-05T18:57:44.749Z,26.93
2018-12-05T19:00:09.555Z,24.43
2018-12-05T19:02:32.133Z,30.17
2018-12-05T19:04:54.870Z,25.60
2018-12-05T19:07:17.473Z,23.57
2018-12-05T19:09:40.199Z,28.27
2018-12-05T19:12:02.819Z,28.83
2018-12-05T19:14:58.935Z,28.10
2018-12-05T20:00:15.229Z,26.63
2018-12-05T20:02:37.880Z,27.40
2018-12-05T20:05:00.482Z,25.03
2018-12-05T20:07:23.063Z,22.27
2018-12-05T20:09:45.661Z,25.30
2018-12-05T20:12:08.273Z,24.77
2018-12-05T20:14:30.865Z,26.27
2018-12-05T21:00:22.447Z,23.27
2018-12-05T21:02:45.183Z,23.17
2018-12-05T21:05:07.958Z,24.93
2018-12-05T21:07:30.694Z,21.90
2018-12-05T21:09:53.289Z,25.73
2018-12-05T21:12:15.981Z,26.13
2018-12-05T21:14:38.697Z,23.57
